sensor_id;sensor_type;location;lat;lon;timestamp;pressure;altitude;pressure_sealevel;temperature;humidity
29383;BME280;16365;51.598;7.668;2023-05-21T00:01:56;101106.56;;;21.06;42.47
29383;BME280;16365;51.598;7.668;2023-05-21T00:04:25;101100.53;;;21.08;42.63
29383;BME280;16365;51.598;7.668;2023-05-21T00:06:55;101101.75;;;21.07;42.24
29383;BME280;16365;51.598;7.668;2023-05-21T00:09:22;101094.91;;;21.08;42.19
29383;BME280;16365;51.598;7.668;2023-05-21T00:11:48;101092.06;;;21.08;42.26
29383;BME280;16365;51.598;7.668;2023-05-21T00:14:15;101091.66;;;21.05;42.27
29383;BME280;16365;51.598;7.668;2023-05-21T00:16:42;101093.25;;;21.03;42.28
29383;BME280;16365;51.598;7.668;2023-05-21T00:19:10;101089.22;;;21.00;42.20
29383;BME280;16365;51.598;7.668;2023-05-21T00:21:38;101094.81;;;20.97;42.25
29383;BME280;16365;51.598;7.668;2023-05-21T00:24:05;101086.75;;;20.95;42.53
29383;BME280;16365;51.598;7.668;2023-05-21T00:26:32;101079.06;;;20.92;42.51
29383;BME280;16365;51.598;7.668;2023-05-21T00:28:58;101085.09;;;20.91;42.51
29383;BME280;16365;51.598;7.668;2023-05-21T00:31:26;101075.81;;;20.87;42.44
29383;BME280;16365;51.598;7.668;2023-05-21T00:33:53;101074.19;;;20.86;42.58
29383;BME280;16365;51.598;7.668;2023-05-21T00:36:19;101077.41;;;20.84;42.53
29383;BME280;16365;51.598;7.668;2023-05-21T00:38:50;101075.34;;;20.81;42.59
29383;BME280;16365;51.598;7.668;2023-05-21T00:41:17;101075.75;;;20.79;42.57
29383;BME280;16365;51.598;7.668;2023-05-21T00:43:44;101073.31;;;20.78;42.63
29383;BME280;16365;51.598;7.668;2023-05-21T00:46:14;101069.28;;;20.75;42.77
29383;BME280;16365;51.598;7.668;2023-05-21T00:48:45;101067.22;;;20.72;42.71
29383;BME280;16365;51.598;7.668;2023-05-21T00:51:13;101058.38;;;20.70;42.68
29383;BME280;16365;51.598;7.668;2023-05-21T00:53:41;101059.53;;;20.66;42.72
29383;BME280;16365;51.598;7.668;2023-05-21T00:56:08;101061.91;;;20.64;42.58
29383;BME280;16365;51.598;7.668;2023-05-21T00:58:35;101054.25;;;20.61;42.70
29383;BME280;16365;51.598;7.668;2023-05-21T01:01:02;101059.44;;;20.59;42.77
29383;BME280;16365;51.598;7.668;2023-05-21T01:03:34;101054.97;;;20.54;42.89
29383;BME280;16365;51.598;7.668;2023-05-21T01:06:04;101050.94;;;20.51;42.65
29383;BME280;16365;51.598;7.668;2023-05-21T01:08:31;101051.31;;;20.50;42.89
29383;BME280;16365;51.598;7.668;2023-05-21T01:11:01;101056.91;;;20.46;43.03
29383;BME280;16365;51.598;7.668;2023-05-21T01:13:29;101056.47;;;20.44;42.95
29383;BME280;16365;51.598;7.668;2023-05-21T01:15:57;101061.69;;;20.42;42.80
29383;BME280;16365;51.598;7.668;2023-05-21T01:18:24;101048.00;;;20.41;43.01
29383;BME280;16365;51.598;7.668;2023-05-21T01:20:51;101050.38;;;20.39;43.08
29383;BME280;16365;51.598;7.668;2023-05-21T01:23:19;101044.69;;;20.35;43.10
29383;BME280;16365;51.598;7.668;2023-05-21T01:25:47;101047.09;;;20.33;43.17
29383;BME280;16365;51.598;7.668;2023-05-21T01:28:13;101042.22;;;20.30;43.19
29383;BME280;16365;51.598;7.668;2023-05-21T01:30:41;101041.81;;;20.28;43.34
29383;BME280;16365;51.598;7.668;2023-05-21T01:33:17;101040.97;;;20.24;43.71
29383;BME280;16365;51.598;7.668;2023-05-21T01:40:46;101032.47;;;20.20;43.70
29383;BME280;16365;51.598;7.668;2023-05-21T01:43:17;101038.91;;;20.21;43.09
29383;BME280;16365;51.598;7.668;2023-05-21T01:45:45;101034.88;;;20.18;43.43
29383;BME280;16365;51.598;7.668;2023-05-21T01:48:13;101032.47;;;20.17;43.69
29383;BME280;16365;51.598;7.668;2023-05-21T01:50:41;101032.47;;;20.17;43.63
29383;BME280;16365;51.598;7.668;2023-05-21T01:53:08;101030.06;;;20.19;43.27
29383;BME280;16365;51.598;7.668;2023-05-21T01:55:35;101034.13;;;20.21;43.26
29383;BME280;16365;51.598;7.668;2023-05-21T01:58:04;101026.03;;;20.20;43.47
29383;BME280;16365;51.598;7.668;2023-05-21T02:00:32;101032.47;;;20.17;43.71
29383;BME280;16365;51.598;7.668;2023-05-21T02:02:59;101028.84;;;20.16;43.64
29383;BME280;16365;51.598;7.668;2023-05-21T02:05:26;101022.38;;;20.16;43.71
29383;BME280;16365;51.598;7.668;2023-05-21T02:07:53;101023.56;;;20.15;43.84
29383;BME280;16365;51.598;7.668;2023-05-21T02:10:20;101019.94;;;20.14;43.70
29383;BME280;16365;51.598;7.668;2023-05-21T02:12:47;101021.97;;;20.14;43.78
29383;BME280;16365;51.598;7.668;2023-05-21T02:15:13;101018.72;;;20.12;43.84
29383;BME280;16365;51.598;7.668;2023-05-21T02:17:43;101021.53;;;20.12;43.87
29383;BME280;16365;51.598;7.668;2023-05-21T02:20:10;101013.88;;;20.09;43.77
29383;BME280;16365;51.598;7.668;2023-05-21T02:22:41;101022.31;;;20.09;43.87
29383;BME280;16365;51.598;7.668;2023-05-21T02:25:09;101010.63;;;20.07;43.91
29383;BME280;16365;51.598;7.668;2023-05-21T02:27:37;101015.00;;;20.04;43.91
29383;BME280;16365;51.598;7.668;2023-05-21T02:30:08;101013.41;;;20.03;44.02
29383;BME280;16365;51.598;7.668;2023-05-21T02:35:03;101018.19;;;19.99;44.14
29383;BME280;16365;51.598;7.668;2023-05-21T02:37:30;101017.75;;;19.97;44.31
29383;BME280;16365;51.598;7.668;2023-05-21T02:40:02;101012.13;;;19.97;44.40
29383;BME280;16365;51.598;7.668;2023-05-21T02:42:29;101012.94;;;19.97;44.34
29383;BME280;16365;51.598;7.668;2023-05-21T02:44:56;101015.75;;;19.97;44.50
29383;BME280;16365;51.598;7.668;2023-05-21T02:47:22;101012.94;;;19.97;44.35
29383;BME280;16365;51.598;7.668;2023-05-21T02:49:50;101013.75;;;19.98;44.31
29383;BME280;16365;51.598;7.668;2023-05-21T02:52:17;101008.94;;;19.98;44.48
29383;BME280;16365;51.598;7.668;2023-05-21T02:54:44;101013.34;;;19.99;44.51
29383;BME280;16365;51.598;7.668;2023-05-21T02:57:11;101012.13;;;19.97;44.36
29383;BME280;16365;51.598;7.668;2023-05-21T02:59:37;101007.31;;;19.97;44.51
29383;BME280;16365;51.598;7.668;2023-05-21T03:02:04;101009.31;;;19.97;44.53
29383;BME280;16365;51.598;7.668;2023-05-21T03:04:31;101010.50;;;19.96;44.41
29383;BME280;16365;51.598;7.668;2023-05-21T03:06:58;101010.50;;;19.96;44.35
29383;BME280;16365;51.598;7.668;2023-05-21T03:09:27;101007.25;;;19.94;44.52
29383;BME280;16365;51.598;7.668;2023-05-21T03:11:53;101003.66;;;19.93;44.46
29383;BME280;16365;51.598;7.668;2023-05-21T03:14:20;101003.19;;;19.91;44.49
29383;BME280;16365;51.598;7.668;2023-05-21T03:16:47;101004.41;;;19.90;44.60
29383;BME280;16365;51.598;7.668;2023-05-21T03:19:14;101007.16;;;19.87;44.70
29383;BME280;16365;51.598;7.668;2023-05-21T03:21:40;101000.72;;;19.86;44.70
29383;BME280;16365;51.598;7.668;2023-05-21T03:24:08;101003.53;;;19.86;45.09
29383;BME280;16365;51.598;7.668;2023-05-21T03:26:35;101005.94;;;19.84;44.72
29383;BME280;16365;51.598;7.668;2023-05-21T03:29:01;101003.53;;;19.83;44.72
29383;BME280;16365;51.598;7.668;2023-05-21T03:31:28;100999.06;;;19.82;44.95
29383;BME280;16365;51.598;7.668;2023-05-21T03:33:54;101005.50;;;19.82;44.91
29383;BME280;16365;51.598;7.668;2023-05-21T03:36:21;101003.88;;;19.81;44.85
29383;BME280;16365;51.598;7.668;2023-05-21T03:38:48;101001.47;;;19.80;44.97
29383;BME280;16365;51.598;7.668;2023-05-21T03:41:14;101009.09;;;19.79;44.92
29383;BME280;16365;51.598;7.668;2023-05-21T03:43:41;101003.88;;;19.77;44.96
29383;BME280;16365;51.598;7.668;2023-05-21T03:46:07;101009.88;;;19.76;44.91
29383;BME280;16365;51.598;7.668;2023-05-21T03:48:34;101002.63;;;19.75;45.03
29383;BME280;16365;51.598;7.668;2023-05-21T03:51:01;101001.81;;;19.74;45.07
29383;BME280;16365;51.598;7.668;2023-05-21T03:53:27;101005.81;;;19.73;45.18
29383;BME280;16365;51.598;7.668;2023-05-21T03:55:54;101005.03;;;19.73;45.21
29383;BME280;16365;51.598;7.668;2023-05-21T03:58:21;101011.81;;;19.72;45.08
29383;BME280;16365;51.598;7.668;2023-05-21T04:00:47;100998.94;;;19.71;45.17
29383;BME280;16365;51.598;7.668;2023-05-21T04:03:14;101006.16;;;19.68;45.25
29383;BME280;16365;51.598;7.668;2023-05-21T04:05:41;101003.72;;;19.67;45.46
29383;BME280;16365;51.598;7.668;2023-05-21T04:08:07;101005.72;;;19.66;45.41
29383;BME280;16365;51.598;7.668;2023-05-21T04:10:34;101007.72;;;19.66;45.46
29383;BME280;16365;51.598;7.668;2023-05-21T04:13:01;101008.53;;;19.66;45.35
29383;BME280;16365;51.598;7.668;2023-05-21T04:15:27;101014.97;;;19.67;45.69
29383;BME280;16365;51.598;7.668;2023-05-21T04:17:54;101020.59;;;19.67;45.66
29383;BME280;16365;51.598;7.668;2023-05-21T04:20:21;101009.34;;;19.67;45.54
29383;BME280;16365;51.598;7.668;2023-05-21T04:22:48;101014.59;;;19.68;45.81
29383;BME280;16365;51.598;7.668;2023-05-21T04:25:14;101015.41;;;19.69;45.52
29383;BME280;16365;51.598;7.668;2023-05-21T04:27:43;101011.00;;;19.71;45.38
29383;BME280;16365;51.598;7.668;2023-05-21T04:30:13;101013.06;;;19.74;45.43
29383;BME280;16365;51.598;7.668;2023-05-21T04:32:39;101019.09;;;19.73;45.37
29383;BME280;16365;51.598;7.668;2023-05-21T04:35:06;101022.25;;;19.71;45.55
29383;BME280;16365;51.598;7.668;2023-05-21T04:37:33;101014.22;;;19.70;45.41
29383;BME280;16365;51.598;7.668;2023-05-21T04:40:00;101019.84;;;19.70;45.78
29383;BME280;16365;51.598;7.668;2023-05-21T04:42:28;101025.88;;;19.72;45.61
29383;BME280;16365;51.598;7.668;2023-05-21T04:44:55;101016.63;;;19.71;45.74
29383;BME280;16365;51.598;7.668;2023-05-21T04:47:24;101025.06;;;19.71;45.77
29383;BME280;16365;51.598;7.668;2023-05-21T04:49:51;101019.44;;;19.71;45.72
29383;BME280;16365;51.598;7.668;2023-05-21T04:52:18;101019.44;;;19.71;45.84
29383;BME280;16365;51.598;7.668;2023-05-21T04:54:45;101016.28;;;19.73;45.81
29383;BME280;16365;51.598;7.668;2023-05-21T04:57:13;101015.06;;;19.74;45.71
29383;BME280;16365;51.598;7.668;2023-05-21T04:59:39;101014.69;;;19.75;45.79
29383;BME280;16365;51.598;7.668;2023-05-21T05:02:06;101010.66;;;19.73;45.94
29383;BME280;16365;51.598;7.668;2023-05-21T05:04:33;101015.06;;;19.74;45.97
29383;BME280;16365;51.598;7.668;2023-05-21T05:06:59;101015.88;;;19.74;45.90
29383;BME280;16365;51.598;7.668;2023-05-21T05:09:26;101010.25;;;19.74;46.00
29383;BME280;16365;51.598;7.668;2023-05-21T05:11:53;101004.22;;;19.76;46.27
29383;BME280;16365;51.598;7.668;2023-05-21T05:14:19;101001.88;;;19.78;46.20
29383;BME280;16365;51.598;7.668;2023-05-21T05:16:46;101001.06;;;19.81;46.09
29383;BME280;16365;51.598;7.668;2023-05-21T05:19:15;101002.69;;;19.82;46.00
29383;BME280;16365;51.598;7.668;2023-05-21T05:21:42;100999.06;;;19.82;46.26
29383;BME280;16365;51.598;7.668;2023-05-21T05:24:08;100998.72;;;19.83;46.05
29383;BME280;16365;51.598;7.668;2023-05-21T05:26:35;100997.91;;;19.83;46.24
29383;BME280;16365;51.598;7.668;2023-05-21T05:29:01;101000.31;;;19.84;46.20
29383;BME280;16365;51.598;7.668;2023-05-21T05:31:29;100998.31;;;19.85;46.29
29383;BME280;16365;51.598;7.668;2023-05-21T05:33:56;100993.50;;;19.85;46.26
29383;BME280;16365;51.598;7.668;2023-05-21T05:36:23;101002.38;;;19.87;46.29
29383;BME280;16365;51.598;7.668;2023-05-21T05:38:51;101004.34;;;19.87;46.58
29383;BME280;16365;51.598;7.668;2023-05-21T05:41:17;100997.97;;;19.90;46.41
29383;BME280;16365;51.598;7.668;2023-05-21T05:43:44;101001.59;;;19.90;46.36
29383;BME280;16365;51.598;7.668;2023-05-21T05:46:11;100998.38;;;19.92;46.35
29383;BME280;16365;51.598;7.668;2023-05-21T05:48:37;100994.41;;;19.93;46.97
29383;BME280;16365;51.598;7.668;2023-05-21T05:51:04;100996.81;;;19.94;46.50
29383;BME280;16365;51.598;7.668;2023-05-21T05:53:30;100995.63;;;19.95;46.57
29383;BME280;16365;51.598;7.668;2023-05-21T05:56:00;101000.47;;;19.98;46.06
29383;BME280;16365;51.598;7.668;2023-05-21T05:58:28;100988.84;;;20.00;46.73
29383;BME280;16365;51.598;7.668;2023-05-21T06:00:55;100989.69;;;20.04;46.71
29383;BME280;16365;51.598;7.668;2023-05-21T06:03:21;100990.94;;;20.07;46.63
29383;BME280;16365;51.598;7.668;2023-05-21T06:05:48;100985.31;;;20.10;46.61
29383;BME280;16365;51.598;7.668;2023-05-21T06:08:15;100996.22;;;20.12;46.47
29383;BME280;16365;51.598;7.668;2023-05-21T06:10:41;100995.41;;;20.15;46.71
29383;BME280;16365;51.598;7.668;2023-05-21T06:13:08;101004.31;;;20.17;46.74
29383;BME280;16365;51.598;7.668;2023-05-21T06:15:34;101003.50;;;20.20;47.08
29383;BME280;16365;51.598;7.668;2023-05-21T06:18:01;100993.88;;;20.21;46.79
29383;BME280;16365;51.598;7.668;2023-05-21T06:20:27;101005.97;;;20.25;46.69
29383;BME280;16365;51.598;7.668;2023-05-21T06:22:55;100998.38;;;20.29;46.77
29383;BME280;16365;51.598;7.668;2023-05-21T06:25:21;100996.81;;;20.32;46.85
29383;BME280;16365;51.598;7.668;2023-05-21T06:27:48;100997.66;;;20.36;46.76
29383;BME280;16365;51.598;7.668;2023-05-21T06:30:15;100987.22;;;20.40;46.73
29383;BME280;16365;51.598;7.668;2023-05-21T06:32:42;100996.50;;;20.44;46.80
29383;BME280;16365;51.598;7.668;2023-05-21T06:35:08;100998.59;;;20.47;46.60
29383;BME280;16365;51.598;7.668;2023-05-21T06:37:36;100989.34;;;20.50;46.38
29383;BME280;16365;51.598;7.668;2023-05-21T06:40:03;100994.19;;;20.53;46.52
29383;BME280;16365;51.598;7.668;2023-05-21T06:42:30;100991.81;;;20.55;46.52
29383;BME280;16365;51.598;7.668;2023-05-21T06:44:57;100991.44;;;20.57;46.46
29383;BME280;16365;51.598;7.668;2023-05-21T06:47:23;100993.44;;;20.60;46.53
29383;BME280;16365;51.598;7.668;2023-05-21T06:49:50;100983.41;;;20.62;46.52
29383;BME280;16365;51.598;7.668;2023-05-21T06:52:16;100989.91;;;20.66;46.67
29383;BME280;16365;51.598;7.668;2023-05-21T06:54:42;100997.97;;;20.71;46.48
29383;BME280;16365;51.598;7.668;2023-05-21T06:57:12;100986.31;;;20.73;46.52
29383;BME280;16365;51.598;7.668;2023-05-21T06:59:39;100983.53;;;20.76;46.40
29383;BME280;16365;51.598;7.668;2023-05-21T07:02:05;100987.56;;;20.79;46.26
29383;BME280;16365;51.598;7.668;2023-05-21T07:04:32;100985.97;;;20.82;46.36
29383;BME280;16365;51.598;7.668;2023-05-21T07:07:01;100977.13;;;20.83;46.21
29383;BME280;16365;51.598;7.668;2023-05-21T07:09:30;100979.97;;;20.87;46.64
29383;BME280;16365;51.598;7.668;2023-05-21T07:11:56;100983.63;;;20.91;46.84
29383;BME280;16365;51.598;7.668;2023-05-21T07:14:24;100980.84;;;20.94;46.55
29383;BME280;16365;51.598;7.668;2023-05-21T07:16:51;100975.22;;;20.98;46.22
29383;BME280;16365;51.598;7.668;2023-05-21T07:19:18;100975.69;;;21.03;46.20
29383;BME280;16365;51.598;7.668;2023-05-21T07:21:48;100969.63;;;21.05;46.27
29383;BME280;16365;51.598;7.668;2023-05-21T07:24:14;100969.22;;;21.07;46.30
29383;BME280;16365;51.598;7.668;2023-05-21T07:26:42;100971.69;;;21.08;46.42
29383;BME280;16365;51.598;7.668;2023-05-21T07:29:10;100965.22;;;21.11;46.26
29383;BME280;16365;51.598;7.668;2023-05-21T07:31:36;100962.84;;;21.13;46.79
29383;BME280;16365;51.598;7.668;2023-05-21T07:34:03;100972.50;;;21.16;46.28
29383;BME280;16365;51.598;7.668;2023-05-21T07:36:30;100972.94;;;21.21;46.52
29383;BME280;16365;51.598;7.668;2023-05-21T07:38:58;100977.41;;;21.26;46.46
29383;BME280;16365;51.598;7.668;2023-05-21T07:41:25;100983.13;;;21.33;46.11
29383;BME280;16365;51.598;7.668;2023-05-21T07:43:52;100980.69;;;21.35;46.46
29383;BME280;16365;51.598;7.668;2023-05-21T07:46:19;100988.78;;;21.40;46.73
29383;BME280;16365;51.598;7.668;2023-05-21T07:48:45;100995.25;;;21.44;46.17
29383;BME280;16365;51.598;7.668;2023-05-21T07:51:13;100988.44;;;21.49;46.25
29383;BME280;16365;51.598;7.668;2023-05-21T07:53:39;100993.69;;;21.54;46.22
29383;BME280;16365;51.598;7.668;2023-05-21T07:56:07;100992.09;;;21.60;46.27
29383;BME280;16365;51.598;7.668;2023-05-21T07:58:33;100986.47;;;21.64;45.98
29383;BME280;16365;51.598;7.668;2023-05-21T08:01:03;100993.75;;;21.68;46.13
29383;BME280;16365;51.598;7.668;2023-05-21T08:03:29;100988.13;;;21.72;45.70
29383;BME280;16365;51.598;7.668;2023-05-21T08:05:56;100992.59;;;21.76;45.86
29383;BME280;16365;51.598;7.668;2023-05-21T08:08:24;100986.53;;;21.78;46.10
29383;BME280;16365;51.598;7.668;2023-05-21T08:10:51;100982.50;;;21.83;45.84
29383;BME280;16365;51.598;7.668;2023-05-21T08:13:17;100982.53;;;21.86;45.98
29383;BME280;16365;51.598;7.668;2023-05-21T08:15:44;100989.81;;;21.91;45.91
29383;BME280;16365;51.598;7.668;2023-05-21T08:18:11;100989.00;;;21.94;45.77
29383;BME280;16365;51.598;7.668;2023-05-21T08:20:38;100989.00;;;21.97;46.04
29383;BME280;16365;51.598;7.668;2023-05-21T08:23:04;100995.06;;;22.03;46.17
29383;BME280;16365;51.598;7.668;2023-05-21T08:25:30;100996.69;;;22.07;45.84
29383;BME280;16365;51.598;7.668;2023-05-21T08:27:57;100998.34;;;22.12;45.88
29383;BME280;16365;51.598;7.668;2023-05-21T08:30:24;100989.47;;;22.17;46.05
29383;BME280;16365;51.598;7.668;2023-05-21T08:32:50;100981.41;;;22.23;45.86
29383;BME280;16365;51.598;7.668;2023-05-21T08:35:18;100993.97;;;22.29;45.92
29383;BME280;16365;51.598;7.668;2023-05-21T08:37:44;100988.72;;;22.35;45.74
29383;BME280;16365;51.598;7.668;2023-05-21T08:40:13;100981.84;;;22.39;45.65
29383;BME280;16365;51.598;7.668;2023-05-21T08:42:47;100985.47;;;22.43;45.78
29383;BME280;16365;51.598;7.668;2023-05-21T08:45:19;100991.94;;;22.51;45.93
29383;BME280;16365;51.598;7.668;2023-05-21T08:47:46;100979.44;;;22.59;45.36
29383;BME280;16365;51.598;7.668;2023-05-21T08:50:15;100981.44;;;22.66;45.49
29383;BME280;16365;51.598;7.668;2023-05-21T08:52:42;100985.09;;;22.73;45.39
29383;BME280;16365;51.598;7.668;2023-05-21T08:55:08;100981.81;;;22.86;45.53
29383;BME280;16365;51.598;7.668;2023-05-21T08:57:36;100977.00;;;22.93;45.51
29383;BME280;16365;51.598;7.668;2023-05-21T09:00:03;100979.00;;;23.03;45.66
29383;BME280;16365;51.598;7.668;2023-05-21T09:02:33;100976.16;;;23.14;45.70
29383;BME280;16365;51.598;7.668;2023-05-21T09:05:00;100968.44;;;23.25;45.45
29383;BME280;16365;51.598;7.668;2023-05-21T09:07:29;100976.06;;;23.39;45.14
29383;BME280;16365;51.598;7.668;2023-05-21T09:10:02;100964.31;;;23.48;45.01
29383;BME280;16365;51.598;7.668;2023-05-21T09:12:30;100965.91;;;23.59;44.78
29383;BME280;16365;51.598;7.668;2023-05-21T09:14:59;100959.81;;;23.68;44.83
29383;BME280;16365;51.598;7.668;2023-05-21T09:17:28;100961.78;;;23.78;44.82
29383;BME280;16365;51.598;7.668;2023-05-21T09:20:09;100961.34;;;23.83;44.59
29383;BME280;16365;51.598;7.668;2023-05-21T09:22:48;100959.72;;;23.90;44.07
29383;BME280;16365;51.598;7.668;2023-05-21T09:25:18;100960.88;;;23.99;44.13
29383;BME280;16365;51.598;7.668;2023-05-21T09:27:45;100965.28;;;24.04;43.73
29383;BME280;16365;51.598;7.668;2023-05-21T09:30:14;100958.78;;;24.07;43.82
29383;BME280;16365;51.598;7.668;2023-05-21T09:32:44;100951.88;;;24.11;43.77
29383;BME280;16365;51.598;7.668;2023-05-21T09:35:13;100955.47;;;24.16;43.57
29383;BME280;16365;51.598;7.668;2023-05-21T09:37:40;100942.09;;;24.20;43.66
29383;BME280;16365;51.598;7.668;2023-05-21T09:40:17;100946.94;;;24.23;43.69
29383;BME280;16365;51.598;7.668;2023-05-21T09:42:52;100947.31;;;24.28;43.08
29383;BME280;16365;51.598;7.668;2023-05-21T09:45:24;100942.00;;;24.34;43.28
29383;BME280;16365;51.598;7.668;2023-05-21T09:47:53;100942.81;;;24.38;43.37
29383;BME280;16365;51.598;7.668;2023-05-21T09:50:22;100945.19;;;24.43;43.54
29383;BME280;16365;51.598;7.668;2023-05-21T09:52:50;100947.16;;;24.50;43.47
29383;BME280;16365;51.598;7.668;2023-05-21T09:55:25;100951.13;;;24.56;43.13
29383;BME280;16365;51.598;7.668;2023-05-21T09:57:53;100939.75;;;24.63;43.07
29383;BME280;16365;51.598;7.668;2023-05-21T10:00:22;100943.72;;;24.69;43.41
29383;BME280;16365;51.598;7.668;2023-05-21T10:02:50;100947.31;;;24.77;43.33
29383;BME280;16365;51.598;7.668;2023-05-21T10:05:19;100946.84;;;24.85;42.71
29383;BME280;16365;51.598;7.668;2023-05-21T10:07:48;100941.91;;;24.90;43.05
29383;BME280;16365;51.598;7.668;2023-05-21T10:10:18;100936.59;;;24.95;42.60
29383;BME280;16365;51.598;7.668;2023-05-21T10:12:47;100935.75;;;24.98;42.16
29383;BME280;16365;51.598;7.668;2023-05-21T10:15:21;100929.66;;;25.00;42.21
29383;BME280;16365;51.598;7.668;2023-05-21T10:17:49;100921.91;;;25.04;42.27
29383;BME280;16365;51.598;7.668;2023-05-21T10:20:19;100929.59;;;25.07;42.65
29383;BME280;16365;51.598;7.668;2023-05-21T10:22:47;100920.66;;;25.08;42.30
29383;BME280;16365;51.598;7.668;2023-05-21T10:25:18;100926.75;;;25.10;42.40
29383;BME280;16365;51.598;7.668;2023-05-21T10:27:45;100912.91;;;25.12;42.57
29383;BME280;16365;51.598;7.668;2023-05-21T10:30:13;100919.34;;;25.17;42.56
29383;BME280;16365;51.598;7.668;2023-05-21T10:32:42;100910.00;;;25.20;42.52
29383;BME280;16365;51.598;7.668;2023-05-21T10:35:10;100905.06;;;25.24;42.51
29383;BME280;16365;51.598;7.668;2023-05-21T10:37:37;100902.59;;;25.29;42.43
29383;BME280;16365;51.598;7.668;2023-05-21T10:40:04;100906.56;;;25.35;42.74
29383;BME280;16365;51.598;7.668;2023-05-21T10:45:25;100910.06;;;25.47;42.36
29383;BME280;16365;51.598;7.668;2023-05-21T11:00:39;100907.25;;;25.77;41.85
29383;BME280;16365;51.598;7.668;2023-05-21T11:03:06;100906.38;;;25.80;41.88
29383;BME280;16365;51.598;7.668;2023-05-21T11:05:49;100896.22;;;25.83;41.48
29383;BME280;16365;51.598;7.668;2023-05-21T11:08:24;100895.72;;;25.88;42.01
29383;BME280;16365;51.598;7.668;2023-05-21T11:10:54;100901.31;;;25.92;41.86
29383;BME280;16365;51.598;7.668;2023-05-21T11:13:27;100894.34;;;25.96;41.68
29383;BME280;16365;51.598;7.668;2023-05-21T11:21:05;100896.19;;;26.10;41.53
29383;BME280;16365;51.598;7.668;2023-05-21T11:23:53;100894.53;;;26.12;41.25
29383;BME280;16365;51.598;7.668;2023-05-21T11:26:23;100891.19;;;26.18;41.35
29383;BME280;16365;51.598;7.668;2023-05-21T11:31:31;100879.28;;;26.26;41.34
29383;BME280;16365;51.598;7.668;2023-05-21T11:36:45;100865.31;;;26.35;41.17
29383;BME280;16365;51.598;7.668;2023-05-21T11:39:14;100873.75;;;26.39;41.28
29383;BME280;16365;51.598;7.668;2023-05-21T11:42:01;100865.63;;;26.41;41.34
29383;BME280;16365;51.598;7.668;2023-05-21T11:44:46;100875.72;;;26.46;41.22
29383;BME280;16365;51.598;7.668;2023-05-21T11:47:18;100885.78;;;26.50;41.28
29383;BME280;16365;51.598;7.668;2023-05-21T11:49:45;100875.50;;;26.56;40.88
29383;BME280;16365;51.598;7.668;2023-05-21T11:52:12;100876.66;;;26.59;40.79
29383;BME280;16365;51.598;7.668;2023-05-21T11:54:41;100882.75;;;26.61;41.37
29383;BME280;16365;51.598;7.668;2023-05-21T11:57:11;100879.00;;;26.64;40.52
29383;BME280;16365;51.598;7.668;2023-05-21T11:59:44;100865.63;;;26.64;40.59
29383;BME280;16365;51.598;7.668;2023-05-21T12:02:15;100877.41;;;26.63;40.52
29383;BME280;16365;51.598;7.668;2023-05-21T12:04:44;100868.47;;;26.64;40.79
29383;BME280;16365;51.598;7.668;2023-05-21T12:07:13;100868.81;;;26.67;40.70
29383;BME280;16365;51.598;7.668;2023-05-21T12:09:49;100873.25;;;26.68;41.18
29383;BME280;16365;51.598;7.668;2023-05-21T12:12:19;100872.41;;;26.71;41.32
29383;BME280;16365;51.598;7.668;2023-05-21T12:14:48;100867.47;;;26.75;40.74
29383;BME280;16365;51.598;7.668;2023-05-21T12:17:17;100873.06;;;26.78;40.86
29383;BME280;16365;51.598;7.668;2023-05-21T12:19:44;100866.06;;;26.83;40.99
29383;BME280;16365;51.598;7.668;2023-05-21T12:22:11;100868.41;;;26.88;41.10
29383;BME280;16365;51.598;7.668;2023-05-21T12:24:39;100852.50;;;26.90;40.51
29383;BME280;16365;51.598;7.668;2023-05-21T12:27:06;100862.63;;;26.91;40.45
29383;BME280;16365;51.598;7.668;2023-05-21T12:29:40;100863.44;;;26.92;40.09
29383;BME280;16365;51.598;7.668;2023-05-21T12:32:09;100860.25;;;26.90;40.15
29383;BME280;16365;51.598;7.668;2023-05-21T12:34:41;100862.28;;;26.89;40.16
29383;BME280;16365;51.598;7.668;2023-05-21T12:37:25;100855.06;;;26.85;40.45
29383;BME280;16365;51.598;7.668;2023-05-21T12:39:54;100858.25;;;26.87;40.58
29383;BME280;16365;51.598;7.668;2023-05-21T12:42:28;100860.69;;;26.88;40.33
29383;BME280;16365;51.598;7.668;2023-05-21T12:44:56;100860.25;;;26.90;40.45
29383;BME280;16365;51.598;7.668;2023-05-21T12:47:24;100856.94;;;26.91;40.70
29383;BME280;16365;51.598;7.668;2023-05-21T12:49:58;100854.91;;;26.92;40.37
29383;BME280;16365;51.598;7.668;2023-05-21T12:52:27;100849.94;;;26.96;40.37
29383;BME280;16365;51.598;7.668;2023-05-21T12:54:55;100845.44;;;26.99;40.49
29383;BME280;16365;51.598;7.668;2023-05-21T12:57:26;100853.53;;;27.00;40.71
29383;BME280;16365;51.598;7.668;2023-05-21T12:59:57;100846.16;;;27.03;40.78
29383;BME280;16365;51.598;7.668;2023-05-21T13:02:26;100849.81;;;27.03;40.58
29383;BME280;16365;51.598;7.668;2023-05-21T13:04:55;100844.03;;;27.07;40.10
29383;BME280;16365;51.598;7.668;2023-05-21T13:07:23;100847.69;;;27.07;40.51
29383;BME280;16365;51.598;7.668;2023-05-21T13:09:52;100844.78;;;27.11;40.39
29383;BME280;16365;51.598;7.668;2023-05-21T13:12:20;100843.94;;;27.14;40.35
29383;BME280;16365;51.598;7.668;2023-05-21T13:14:52;100849.09;;;27.19;40.26
29383;BME280;16365;51.598;7.668;2023-05-21T13:17:19;100837.19;;;27.24;40.43
29383;BME280;16365;51.598;7.668;2023-05-21T13:22:39;100840.19;;;27.37;40.03
29383;BME280;16365;51.598;7.668;2023-05-21T13:25:14;100835.09;;;27.45;40.08
29383;BME280;16365;51.598;7.668;2023-05-21T13:27:46;100837.00;;;27.51;40.07
29383;BME280;16365;51.598;7.668;2023-05-21T13:30:15;100819.75;;;27.58;40.48
29383;BME280;16365;51.598;7.668;2023-05-21T13:32:42;100827.31;;;27.65;40.33